sensor_id;sensor_type;location;lat;lon;timestamp;P1;durP1;ratioP1;P2;durP2;ratioP2
4023;SDS011;2026;51.002;13.668;2023-09-19T00:02:24;2.60;;;1.43;;
4023;SDS011;2026;51.002;13.668;2023-09-19T00:07:27;3.73;;;1.60;;
4023;SDS011;2026;51.002;13.668;2023-09-19T00:12:31;4.13;;;2.10;;
4023;SDS011;2026;51.002;13.668;2023-09-19T00:17:34;2.40;;;1.60;;
4023;SDS011;2026;51.002;13.668;2023-09-19T00:22:39;6.90;;;1.73;;
4023;SDS011;2026;51.002;13.668;2023-09-19T00:27:43;2.53;;;1.60;;
4023;SDS011;2026;51.002;13.668;2023-09-19T00:32:46;3.73;;;1.70;;
4023;SDS011;2026;51.002;13.668;2023-09-19T00:37:50;2.70;;;1.90;;
4023;SDS011;2026;51.002;13.668;2023-09-19T00:42:56;2.17;;;1.63;;
4023;SDS011;2026;51.002;13.668;2023-09-19T00:48:00;2.80;;;1.73;;
4023;SDS011;2026;51.002;13.668;2023-09-19T00:53:05;2.00;;;1.80;;
4023;SDS011;2026;51.002;13.668;2023-09-19T00:58:11;1.93;;;1.50;;
4023;SDS011;2026;51.002;13.668;2023-09-19T01:03:14;3.87;;;2.40;;
4023;SDS011;2026;51.002;13.668;2023-09-19T01:08:17;4.30;;;1.83;;
4023;SDS011;2026;51.002;13.668;2023-09-19T01:13:23;3.00;;;1.90;;
4023;SDS011;2026;51.002;13.668;2023-09-19T01:18:31;2.03;;;1.87;;
4023;SDS011;2026;51.002;13.668;2023-09-19T01:23:42;5.53;;;1.90;;
4023;SDS011;2026;51.002;13.668;2023-09-19T01:28:53;3.60;;;2.20;;
4023;SDS011;2026;51.002;13.668;2023-09-19T01:34:00;3.10;;;2.23;;
4023;SDS011;2026;51.002;13.668;2023-09-19T01:39:08;3.67;;;2.37;;
4023;SDS011;2026;51.002;13.668;2023-09-19T01:44:17;3.00;;;2.20;;
4023;SDS011;2026;51.002;13.668;2023-09-19T01:49:25;2.53;;;1.80;;
4023;SDS011;2026;51.002;13.668;2023-09-19T01:54:30;3.07;;;1.90;;
4023;SDS011;2026;51.002;13.668;2023-09-19T01:59:36;3.10;;;1.80;;
4023;SDS011;2026;51.002;13.668;2023-09-19T02:04:43;3.70;;;1.70;;
4023;SDS011;2026;51.002;13.668;2023-09-19T02:09:45;2.73;;;1.63;;
4023;SDS011;2026;51.002;13.668;2023-09-19T02:14:49;5.60;;;2.00;;
4023;SDS011;2026;51.002;13.668;2023-09-19T02:19:53;3.30;;;2.00;;
4023;SDS011;2026;51.002;13.668;2023-09-19T02:24:56;4.03;;;1.80;;
4023;SDS011;2026;51.002;13.668;2023-09-19T02:30:02;2.00;;;1.53;;
4023;SDS011;2026;51.002;13.668;2023-09-19T02:35:08;3.67;;;1.60;;
4023;SDS011;2026;51.002;13.668;2023-09-19T02:40:13;1.80;;;1.70;;
4023;SDS011;2026;51.002;13.668;2023-09-19T02:45:21;3.80;;;1.90;;
4023;SDS011;2026;51.002;13.668;2023-09-19T02:50:26;3.20;;;1.70;;
4023;SDS011;2026;51.002;13.668;2023-09-19T02:55:29;2.10;;;1.60;;
4023;SDS011;2026;51.002;13.668;2023-09-19T03:00:33;2.77;;;1.70;;
4023;SDS011;2026;51.002;13.668;2023-09-19T03:05:38;1.43;;;1.33;;
4023;SDS011;2026;51.002;13.668;2023-09-19T03:10:41;2.70;;;1.57;;
4023;SDS011;2026;51.002;13.668;2023-09-19T03:15:44;1.87;;;1.53;;
4023;SDS011;2026;51.002;13.668;2023-09-19T03:20:53;2.33;;;1.70;;
4023;SDS011;2026;51.002;13.668;2023-09-19T03:25:57;4.03;;;1.40;;
4023;SDS011;2026;51.002;13.668;2023-09-19T03:31:01;3.80;;;1.80;;
4023;SDS011;2026;51.002;13.668;2023-09-19T03:36:08;2.80;;;1.83;;
4023;SDS011;2026;51.002;13.668;2023-09-19T03:41:11;5.60;;;1.70;;
4023;SDS011;2026;51.002;13.668;2023-09-19T03:46:16;1.83;;;1.63;;
4023;SDS011;2026;51.002;13.668;2023-09-19T03:51:21;2.20;;;2.00;;
4023;SDS011;2026;51.002;13.668;2023-09-19T03:56:24;2.33;;;1.40;;
4023;SDS011;2026;51.002;13.668;2023-09-19T04:01:27;2.67;;;1.67;;
4023;SDS011;2026;51.002;13.668;2023-09-19T04:06:33;2.50;;;1.70;;
4023;SDS011;2026;51.002;13.668;2023-09-19T04:11:36;4.10;;;1.70;;
4023;SDS011;2026;51.002;13.668;2023-09-19T04:16:39;3.00;;;2.00;;
4023;SDS011;2026;51.002;13.668;2023-09-19T04:21:43;2.03;;;1.47;;
4023;SDS011;2026;51.002;13.668;2023-09-19T04:26:46;4.50;;;1.80;;
4023;SDS011;2026;51.002;13.668;2023-09-19T04:31:49;3.67;;;1.80;;
4023;SDS011;2026;51.002;13.668;2023-09-19T04:36:54;4.40;;;1.73;;
4023;SDS011;2026;51.002;13.668;2023-09-19T04:41:59;2.00;;;1.80;;
4023;SDS011;2026;51.002;13.668;2023-09-19T04:47:02;3.93;;;1.70;;
4023;SDS011;2026;51.002;13.668;2023-09-19T04:52:07;1.93;;;1.77;;
4023;SDS011;2026;51.002;13.668;2023-09-19T04:57:09;3.07;;;1.90;;
4023;SDS011;2026;51.002;13.668;2023-09-19T05:02:12;1.60;;;1.50;;
4023;SDS011;2026;51.002;13.668;2023-09-19T05:07:17;2.40;;;1.70;;
4023;SDS011;2026;51.002;13.668;2023-09-19T05:12:19;2.50;;;2.00;;
4023;SDS011;2026;51.002;13.668;2023-09-19T05:17:22;2.67;;;1.50;;
4023;SDS011;2026;51.002;13.668;2023-09-19T05:22:28;3.00;;;2.10;;
4023;SDS011;2026;51.002;13.668;2023-09-19T05:27:30;2.13;;;1.80;;
4023;SDS011;2026;51.002;13.668;2023-09-19T05:32:33;3.43;;;1.53;;
4023;SDS011;2026;51.002;13.668;2023-09-19T05:37:37;2.27;;;1.77;;
4023;SDS011;2026;51.002;13.668;2023-09-19T05:42:40;2.37;;;1.90;;
4023;SDS011;2026;51.002;13.668;2023-09-19T05:47:44;2.73;;;1.93;;
4023;SDS011;2026;51.002;13.668;2023-09-19T05:52:52;2.63;;;1.80;;
4023;SDS011;2026;51.002;13.668;2023-09-19T05:57:55;2.43;;;1.70;;
4023;SDS011;2026;51.002;13.668;2023-09-19T06:02:58;2.87;;;1.53;;
4023;SDS011;2026;51.002;13.668;2023-09-19T06:08:03;3.60;;;1.90;;
4023;SDS011;2026;51.002;13.668;2023-09-19T06:13:09;3.63;;;1.83;;
4023;SDS011;2026;51.002;13.668;2023-09-19T06:18:12;2.20;;;2.00;;
4023;SDS011;2026;51.002;13.668;2023-09-19T06:23:22;1.60;;;1.50;;
4023;SDS011;2026;51.002;13.668;2023-09-19T06:28:26;3.00;;;1.90;;
4023;SDS011;2026;51.002;13.668;2023-09-19T06:33:29;6.50;;;1.93;;
4023;SDS011;2026;51.002;13.668;2023-09-19T06:38:34;3.00;;;1.80;;
4023;SDS011;2026;51.002;13.668;2023-09-19T06:43:37;4.17;;;2.10;;
4023;SDS011;2026;51.002;13.668;2023-09-19T06:48:41;4.70;;;1.83;;
4023;SDS011;2026;51.002;13.668;2023-09-19T06:53:46;2.60;;;2.00;;
4023;SDS011;2026;51.002;13.668;2023-09-19T06:58:49;2.30;;;1.60;;
4023;SDS011;2026;51.002;13.668;2023-09-19T07:03:52;2.30;;;1.90;;
4023;SDS011;2026;51.002;13.668;2023-09-19T07:08:56;2.87;;;1.83;;
4023;SDS011;2026;51.002;13.668;2023-09-19T07:13:59;3.63;;;1.80;;
4023;SDS011;2026;51.002;13.668;2023-09-19T07:19:03;3.03;;;1.83;;
4023;SDS011;2026;51.002;13.668;2023-09-19T07:24:07;2.13;;;1.37;;
4023;SDS011;2026;51.002;13.668;2023-09-19T07:29:10;2.40;;;1.73;;
4023;SDS011;2026;51.002;13.668;2023-09-19T07:34:12;1.87;;;1.67;;
4023;SDS011;2026;51.002;13.668;2023-09-19T07:39:18;2.70;;;1.80;;
4023;SDS011;2026;51.002;13.668;2023-09-19T07:44:24;2.17;;;1.40;;
4023;SDS011;2026;51.002;13.668;2023-09-19T07:49:27;2.50;;;1.40;;
4023;SDS011;2026;51.002;13.668;2023-09-19T07:54:31;2.63;;;1.20;;
4023;SDS011;2026;51.002;13.668;2023-09-19T07:59:37;3.10;;;1.40;;
4023;SDS011;2026;51.002;13.668;2023-09-19T08:04:40;3.00;;;1.60;;
4023;SDS011;2026;51.002;13.668;2023-09-19T08:09:44;2.63;;;1.83;;
4023;SDS011;2026;51.002;13.668;2023-09-19T08:14:50;4.03;;;2.37;;
4023;SDS011;2026;51.002;13.668;2023-09-19T08:19:52;2.63;;;1.63;;
4023;SDS011;2026;51.002;13.668;2023-09-19T08:24:57;2.00;;;1.80;;
4023;SDS011;2026;51.002;13.668;2023-09-19T08:29:59;4.20;;;1.73;;
4023;SDS011;2026;51.002;13.668;2023-09-19T08:35:02;2.03;;;1.30;;
4023;SDS011;2026;51.002;13.668;2023-09-19T08:40:10;3.23;;;2.20;;
4023;SDS011;2026;51.002;13.668;2023-09-19T08:45:14;2.30;;;1.50;;
4023;SDS011;2026;51.002;13.668;2023-09-19T08:50:19;2.20;;;1.60;;
4023;SDS011;2026;51.002;13.668;2023-09-19T08:55:26;2.10;;;1.33;;
4023;SDS011;2026;51.002;13.668;2023-09-19T09:00:29;2.00;;;1.33;;
4023;SDS011;2026;51.002;13.668;2023-09-19T09:05:33;2.20;;;1.60;;
4023;SDS011;2026;51.002;13.668;2023-09-19T09:10:39;2.77;;;1.50;;
4023;SDS011;2026;51.002;13.668;2023-09-19T09:15:43;4.80;;;1.70;;
4023;SDS011;2026;51.002;13.668;2023-09-19T09:20:46;3.60;;;1.50;;
4023;SDS011;2026;51.002;13.668;2023-09-19T09:25:51;2.10;;;1.47;;
4023;SDS011;2026;51.002;13.668;2023-09-19T09:30:58;2.03;;;1.43;;
4023;SDS011;2026;51.002;13.668;2023-09-19T09:36:01;1.63;;;1.53;;
4023;SDS011;2026;51.002;13.668;2023-09-19T09:41:05;2.57;;;1.83;;
4023;SDS011;2026;51.002;13.668;2023-09-19T09:46:12;2.83;;;1.27;;
4023;SDS011;2026;51.002;13.668;2023-09-19T09:51:29;3.67;;;1.47;;
4023;SDS011;2026;51.002;13.668;2023-09-19T09:56:34;2.10;;;1.50;;
4023;SDS011;2026;51.002;13.668;2023-09-19T10:01:45;1.97;;;1.53;;
4023;SDS011;2026;51.002;13.668;2023-09-19T10:06:49;1.87;;;1.37;;
4023;SDS011;2026;51.002;13.668;2023-09-19T10:12:02;2.30;;;1.30;;
4023;SDS011;2026;51.002;13.668;2023-09-19T10:17:05;2.30;;;1.60;;
4023;SDS011;2026;51.002;13.668;2023-09-19T10:22:13;3.47;;;1.67;;
4023;SDS011;2026;51.002;13.668;2023-09-19T10:27:19;2.40;;;1.73;;
4023;SDS011;2026;51.002;13.668;2023-09-19T10:32:22;2.50;;;1.60;;
4023;SDS011;2026;51.002;13.668;2023-09-19T10:37:25;2.60;;;1.67;;
4023;SDS011;2026;51.002;13.668;2023-09-19T10:42:31;2.17;;;1.47;;
4023;SDS011;2026;51.002;13.668;2023-09-19T10:47:35;3.83;;;1.50;;
4023;SDS011;2026;51.002;13.668;2023-09-19T10:52:40;2.10;;;1.50;;
4023;SDS011;2026;51.002;13.668;2023-09-19T10:57:45;1.90;;;1.60;;
4023;SDS011;2026;51.002;13.668;2023-09-19T11:08:12;3.50;;;1.90;;
4023;SDS011;2026;51.002;13.668;2023-09-19T11:13:26;2.00;;;1.50;;
4023;SDS011;2026;51.002;13.668;2023-09-19T11:18:51;2.63;;;1.60;;
4023;SDS011;2026;51.002;13.668;2023-09-19T11:29:27;3.07;;;1.90;;
4023;SDS011;2026;51.002;13.668;2023-09-19T11:34:47;4.60;;;2.03;;
4023;SDS011;2026;51.002;13.668;2023-09-19T11:40:05;2.57;;;1.93;;
4023;SDS011;2026;51.002;13.668;2023-09-19T11:50:33;4.90;;;1.73;;
4023;SDS011;2026;51.002;13.668;2023-09-19T11:55:36;3.30;;;2.10;;
4023;SDS011;2026;51.002;13.668;2023-09-19T12:00:40;2.20;;;1.80;;
4023;SDS011;2026;51.002;13.668;2023-09-19T12:05:46;3.47;;;2.00;;
4023;SDS011;2026;51.002;13.668;2023-09-19T12:10:50;5.80;;;2.00;;
4023;SDS011;2026;51.002;13.668;2023-09-19T12:15:53;4.23;;;2.20;;
4023;SDS011;2026;51.002;13.668;2023-09-19T12:20:57;4.43;;;1.87;;
4023;SDS011;2026;51.002;13.668;2023-09-19T12:26:01;2.80;;;1.50;;
4023;SDS011;2026;51.002;13.668;2023-09-19T12:31:14;4.43;;;1.97;;
4023;SDS011;2026;51.002;13.668;2023-09-19T12:36:21;6.70;;;1.70;;
4023;SDS011;2026;51.002;13.668;2023-09-19T12:41:30;2.37;;;1.50;;
4023;SDS011;2026;51.002;13.668;2023-09-19T12:46:33;5.10;;;1.87;;
4023;SDS011;2026;51.002;13.668;2023-09-19T12:51:40;5.43;;;1.90;;
4023;SDS011;2026;51.002;13.668;2023-09-19T12:56:45;3.53;;;1.87;;
4023;SDS011;2026;51.002;13.668;2023-09-19T13:01:49;3.27;;;1.37;;
4023;SDS011;2026;51.002;13.668;2023-09-19T13:07:08;3.30;;;2.00;;
4023;SDS011;2026;51.002;13.668;2023-09-19T13:12:37;3.00;;;1.63;;
4023;SDS011;2026;51.002;13.668;2023-09-19T13:17:43;3.90;;;2.67;;
4023;SDS011;2026;51.002;13.668;2023-09-19T13:22:48;6.70;;;2.90;;
4023;SDS011;2026;51.002;13.668;2023-09-19T13:27:55;2.30;;;2.10;;
4023;SDS011;2026;51.002;13.668;2023-09-19T13:33:05;3.03;;;2.00;;
4023;SDS011;2026;51.002;13.668;2023-09-19T13:38:10;2.80;;;1.67;;
4023;SDS011;2026;51.002;13.668;2023-09-19T13:43:14;2.90;;;1.90;;
4023;SDS011;2026;51.002;13.668;2023-09-19T13:48:17;2.70;;;1.70;;
4023;SDS011;2026;51.002;13.668;2023-09-19T13:53:25;2.70;;;1.80;;
4023;SDS011;2026;51.002;13.668;2023-09-19T13:58:28;2.73;;;1.67;;
4023;SDS011;2026;51.002;13.668;2023-09-19T14:03:32;3.73;;;2.03;;
4023;SDS011;2026;51.002;13.668;2023-09-19T14:08:36;2.77;;;2.00;;
4023;SDS011;2026;51.002;13.668;2023-09-19T14:13:40;4.60;;;2.10;;
4023;SDS011;2026;51.002;13.668;2023-09-19T14:18:45;3.37;;;2.33;;
4023;SDS011;2026;51.002;13.668;2023-09-19T14:23:50;4.30;;;2.23;;
4023;SDS011;2026;51.002;13.668;2023-09-19T14:28:52;2.90;;;1.93;;
4023;SDS011;2026;51.002;13.668;2023-09-19T14:33:55;3.90;;;2.20;;
4023;SDS011;2026;51.002;13.668;2023-09-19T14:39:00;3.67;;;2.30;;
4023;SDS011;2026;51.002;13.668;2023-09-19T14:44:04;3.47;;;2.40;;
4023;SDS011;2026;51.002;13.668;2023-09-19T14:49:07;3.67;;;2.47;;
4023;SDS011;2026;51.002;13.668;2023-09-19T14:54:12;3.43;;;2.27;;
4023;SDS011;2026;51.002;13.668;2023-09-19T14:59:18;2.83;;;2.20;;
4023;SDS011;2026;51.002;13.668;2023-09-19T15:04:21;4.00;;;2.37;;
4023;SDS011;2026;51.002;13.668;2023-09-19T15:09:27;4.90;;;2.33;;
4023;SDS011;2026;51.002;13.668;2023-09-19T15:14:30;3.60;;;2.60;;
4023;SDS011;2026;51.002;13.668;2023-09-19T15:19:32;2.57;;;2.30;;
4023;SDS011;2026;51.002;13.668;2023-09-19T15:24:37;3.53;;;2.30;;
4023;SDS011;2026;51.002;13.668;2023-09-19T15:29:39;3.60;;;2.00;;
4023;SDS011;2026;51.002;13.668;2023-09-19T15:34:43;6.37;;;2.47;;
4023;SDS011;2026;51.002;13.668;2023-09-19T15:39:47;3.63;;;2.37;;
4023;SDS011;2026;51.002;13.668;2023-09-19T15:44:50;3.00;;;2.23;;
4023;SDS011;2026;51.002;13.668;2023-09-19T15:49:53;4.13;;;2.43;;
4023;SDS011;2026;51.002;13.668;2023-09-19T15:54:57;3.60;;;2.20;;
4023;SDS011;2026;51.002;13.668;2023-09-19T16:00:00;3.20;;;2.30;;
4023;SDS011;2026;51.002;13.668;2023-09-19T16:05:24;3.43;;;2.80;;
4023;SDS011;2026;51.002;13.668;2023-09-19T16:10:28;4.17;;;2.70;;
4023;SDS011;2026;51.002;13.668;2023-09-19T16:15:31;3.40;;;2.77;;
4023;SDS011;2026;51.002;13.668;2023-09-19T16:20:34;6.10;;;3.13;;
4023;SDS011;2026;51.002;13.668;2023-09-19T16:25:41;2.70;;;2.20;;
4023;SDS011;2026;51.002;13.668;2023-09-19T16:30:44;3.10;;;2.70;;
4023;SDS011;2026;51.002;13.668;2023-09-19T16:35:47;5.00;;;2.57;;
4023;SDS011;2026;51.002;13.668;2023-09-19T16:40:54;3.60;;;2.70;;
4023;SDS011;2026;51.002;13.668;2023-09-19T16:45:59;4.40;;;2.60;;
4023;SDS011;2026;51.002;13.668;2023-09-19T16:51:05;3.97;;;2.77;;
4023;SDS011;2026;51.002;13.668;2023-09-19T16:56:12;5.17;;;3.07;;
4023;SDS011;2026;51.002;13.668;2023-09-19T17:01:16;4.80;;;3.03;;
4023;SDS011;2026;51.002;13.668;2023-09-19T17:06:20;4.53;;;2.57;;
4023;SDS011;2026;51.002;13.668;2023-09-19T17:11:27;5.60;;;2.87;;
4023;SDS011;2026;51.002;13.668;2023-09-19T17:16:30;5.33;;;2.67;;
4023;SDS011;2026;51.002;13.668;2023-09-19T17:21:34;3.97;;;2.80;;
4023;SDS011;2026;51.002;13.668;2023-09-19T17:26:38;3.63;;;2.77;;
4023;SDS011;2026;51.002;13.668;2023-09-19T17:31:44;5.80;;;3.20;;
4023;SDS011;2026;51.002;13.668;2023-09-19T17:36:47;5.73;;;3.00;;
4023;SDS011;2026;51.002;13.668;2023-09-19T17:41:51;4.83;;;2.97;;
4023;SDS011;2026;51.002;13.668;2023-09-19T17:46:53;3.37;;;2.87;;
4023;SDS011;2026;51.002;13.668;2023-09-19T17:51:57;6.03;;;3.00;;
4023;SDS011;2026;51.002;13.668;2023-09-19T17:57:01;4.27;;;2.83;;
4023;SDS011;2026;51.002;13.668;2023-09-19T18:02:04;5.57;;;3.40;;
4023;SDS011;2026;51.002;13.668;2023-09-19T18:07:07;3.80;;;2.67;;
4023;SDS011;2026;51.002;13.668;2023-09-19T18:12:11;3.90;;;3.30;;
4023;SDS011;2026;51.002;13.668;2023-09-19T18:17:14;10.03;;;3.23;;
4023;SDS011;2026;51.002;13.668;2023-09-19T18:22:17;7.50;;;3.23;;
4023;SDS011;2026;51.002;13.668;2023-09-19T18:27:21;6.43;;;4.80;;
4023;SDS011;2026;51.002;13.668;2023-09-19T18:32:24;5.10;;;3.80;;
4023;SDS011;2026;51.002;13.668;2023-09-19T18:37:30;9.80;;;5.93;;
4023;SDS011;2026;51.002;13.668;2023-09-19T18:42:34;9.80;;;6.03;;
4023;SDS011;2026;51.002;13.668;2023-09-19T18:47:37;7.10;;;5.13;;
4023;SDS011;2026;51.002;13.668;2023-09-19T18:52:40;6.40;;;4.53;;
4023;SDS011;2026;51.002;13.668;2023-09-19T18:57:45;7.10;;;3.80;;
4023;SDS011;2026;51.002;13.668;2023-09-19T19:02:48;6.70;;;3.30;;
4023;SDS011;2026;51.002;13.668;2023-09-19T19:07:51;9.43;;;3.30;;
4023;SDS011;2026;51.002;13.668;2023-09-19T19:12:55;3.07;;;2.70;;
4023;SDS011;2026;51.002;13.668;2023-09-19T19:18:00;6.27;;;2.87;;
4023;SDS011;2026;51.002;13.668;2023-09-19T19:23:06;7.03;;;3.03;;
4023;SDS011;2026;51.002;13.668;2023-09-19T19:28:11;4.47;;;2.73;;
4023;SDS011;2026;51.002;13.668;2023-09-19T19:33:16;3.40;;;2.60;;
4023;SDS011;2026;51.002;13.668;2023-09-19T19:38:19;4.43;;;2.40;;
4023;SDS011;2026;51.002;13.668;2023-09-19T19:43:26;5.17;;;2.43;;
4023;SDS011;2026;51.002;13.668;2023-09-19T19:48:30;3.03;;;2.33;;
4023;SDS011;2026;51.002;13.668;2023-09-19T19:53:32;3.77;;;2.20;;
4023;SDS011;2026;51.002;13.668;2023-09-19T19:58:37;3.20;;;2.30;;
4023;SDS011;2026;51.002;13.668;2023-09-19T20:03:40;2.90;;;2.00;;
4023;SDS011;2026;51.002;13.668;2023-09-19T20:08:45;3.37;;;2.60;;
4023;SDS011;2026;51.002;13.668;2023-09-19T20:13:49;4.43;;;2.30;;
4023;SDS011;2026;51.002;13.668;2023-09-19T20:18:52;4.20;;;2.20;;
4023;SDS011;2026;51.002;13.668;2023-09-19T20:23:56;4.57;;;2.80;;
4023;SDS011;2026;51.002;13.668;2023-09-19T20:29:07;4.07;;;2.63;;
4023;SDS011;2026;51.002;13.668;2023-09-19T20:34:10;6.20;;;3.10;;
4023;SDS011;2026;51.002;13.668;2023-09-19T20:39:12;3.47;;;2.60;;
4023;SDS011;2026;51.002;13.668;2023-09-19T20:44:17;3.90;;;2.40;;
4023;SDS011;2026;51.002;13.668;2023-09-19T20:49:20;3.70;;;2.40;;
4023;SDS011;2026;51.002;13.668;2023-09-19T20:54:25;3.53;;;2.37;;
4023;SDS011;2026;51.002;13.668;2023-09-19T20:59:29;3.50;;;2.20;;
4023;SDS011;2026;51.002;13.668;2023-09-19T21:04:32;5.13;;;2.50;;
4023;SDS011;2026;51.002;13.668;2023-09-19T21:09:34;2.77;;;1.90;;
4023;SDS011;2026;51.002;13.668;2023-09-19T21:14:39;4.00;;;2.63;;
4023;SDS011;2026;51.002;13.668;2023-09-19T21:19:44;5.33;;;2.37;;
4023;SDS011;2026;51.002;13.668;2023-09-19T21:24:47;2.80;;;1.90;;
4023;SDS011;2026;51.002;13.668;2023-09-19T21:29:55;2.93;;;2.17;;
4023;SDS011;2026;51.002;13.668;2023-09-19T21:34:58;4.93;;;2.40;;
4023;SDS011;2026;51.002;13.668;2023-09-19T21:40:02;3.57;;;2.00;;
4023;SDS011;2026;51.002;13.668;2023-09-19T21:45:08;3.83;;;2.40;;
4023;SDS011;2026;51.002;13.668;2023-09-19T21:50:11;3.90;;;2.10;;
4023;SDS011;2026;51.002;13.668;2023-09-19T21:55:14;5.23;;;2.30;;
4023;SDS011;2026;51.002;13.668;2023-09-19T22:00:18;3.40;;;2.07;;
4023;SDS011;2026;51.002;13.668;2023-09-19T22:05:36;6.50;;;2.17;;
4023;SDS011;2026;51.002;13.668;2023-09-19T22:10:42;3.90;;;2.00;;
4023;SDS011;2026;51.002;13.668;2023-09-19T22:15:47;5.13;;;2.27;;
4023;SDS011;2026;51.002;13.668;2023-09-19T22:20:50;4.93;;;2.03;;
4023;SDS011;2026;51.002;13.668;2023-09-19T22:25:54;4.00;;;2.07;;
4023;SDS011;2026;51.002;13.668;2023-09-19T22:30:58;4.30;;;2.30;;
4023;SDS011;2026;51.002;13.668;2023-09-19T22:36:02;3.07;;;2.00;;
4023;SDS011;2026;51.002;13.668;2023-09-19T22:41:06;2.57;;;1.83;;
4023;SDS011;2026;51.002;13.668;2023-09-19T22:46:13;3.40;;;1.90;;
4023;SDS011;2026;51.002;13.668;2023-09-19T22:51:16;3.47;;;1.97;;
4023;SDS011;2026;51.002;13.668;2023-09-19T22:56:24;2.97;;;2.23;;
4023;SDS011;2026;51.002;13.668;2023-09-19T23:01:30;2.47;;;1.77;;
4023;SDS011;2026;51.002;13.668;2023-09-19T23:06:37;3.73;;;2.10;;
4023;SDS011;2026;51.002;13.668;2023-09-19T23:11:40;4.17;;;2.10;;
4023;SDS011;2026;51.002;13.668;2023-09-19T23:16:47;3.57;;;2.10;;
4023;SDS011;2026;51.002;13.668;2023-09-19T23:21:59;2.63;;;2.33;;
4023;SDS011;2026;51.002;13.668;2023-09-19T23:27:11;2.97;;;1.80;;
4023;SDS011;2026;51.002;13.668;2023-09-19T23:32:28;3.40;;;2.33;;
4023;SDS011;2026;51.002;13.668;2023-09-19T23:37:31;2.57;;;1.80;;
4023;SDS011;2026;51.002;13.668;2023-09-19T23:42:34;3.67;;;2.20;;
4023;SDS011;2026;51.002;13.668;2023-09-19T23:47:38;3.30;;;2.00;;
4023;SDS011;2026;51.002;13.668;2023-09-19T23:52:42;2.50;;;1.87;;
4023;SDS011;2026;51.002;13.668;2023-09-19T23:57:45;5.93;;;2.00;;
